Terminal Aerodrome Forecast
Issued by NWS North Platte, NE

Home | Current Version | Previous Version | Text Only | Print | Product List | Glossary On
Versions: 1 2 3 4 5 6 7 8 9 10 11 12 13 14
000
FTUS43 KLBF 260500
TAFLBF
TAF
KLBF 260524Z 2606/2706 12007KT P6SM SKC
     FM261100 VRB02KT 3SM BR SKC
     FM261500 32003KT P6SM SCT250
     FM261800 30012G16KT P6SM SCT250
     FM262300 30005KT P6SM BKN250=

USA.gov is the U.S. government's official web portal to all federal, state and local government web resources and services.